sensor_id;sensor_type;location;lat;lon;timestamp;temperature;humidity
21171;DHT22;10743;52.160;20.910;2023-03-04T00:00:29;17.50;34.60
21171;DHT22;10743;52.160;20.910;2023-03-04T00:02:57;17.60;34.60
21171;DHT22;10743;52.160;20.910;2023-03-04T00:05:24;17.60;34.50
21171;DHT22;10743;52.160;20.910;2023-03-04T00:07:51;17.60;34.60
21171;DHT22;10743;52.160;20.910;2023-03-04T00:10:18;17.60;34.70
21171;DHT22;10743;52.160;20.910;2023-03-04T00:12:45;17.60;34.60
21171;DHT22;10743;52.160;20.910;2023-03-04T00:15:12;17.60;34.80
21171;DHT22;10743;52.160;20.910;2023-03-04T00:17:39;17.50;34.80
21171;DHT22;10743;52.160;20.910;2023-03-04T00:20:07;17.50;34.90
21171;DHT22;10743;52.160;20.910;2023-03-04T00:22:35;17.50;34.90
21171;DHT22;10743;52.160;20.910;2023-03-04T00:25:02;17.50;34.90
21171;DHT22;10743;52.160;20.910;2023-03-04T00:27:29;17.50;34.90
21171;DHT22;10743;52.160;20.910;2023-03-04T00:29:57;17.40;34.90
21171;DHT22;10743;52.160;20.910;2023-03-04T00:32:24;17.50;35.00
21171;DHT22;10743;52.160;20.910;2023-03-04T00:34:51;17.50;34.90
21171;DHT22;10743;52.160;20.910;2023-03-04T00:37:18;17.60;34.80
21171;DHT22;10743;52.160;20.910;2023-03-04T00:39:46;17.60;34.70
21171;DHT22;10743;52.160;20.910;2023-03-04T00:42:13;17.60;34.70
21171;DHT22;10743;52.160;20.910;2023-03-04T00:44:40;17.50;34.90
21171;DHT22;10743;52.160;20.910;2023-03-04T00:47:07;17.50;34.70
21171;DHT22;10743;52.160;20.910;2023-03-04T00:49:34;17.50;34.80
21171;DHT22;10743;52.160;20.910;2023-03-04T00:52:03;17.50;34.80
21171;DHT22;10743;52.160;20.910;2023-03-04T00:54:30;17.50;34.90
21171;DHT22;10743;52.160;20.910;2023-03-04T00:56:57;17.50;35.10
21171;DHT22;10743;52.160;20.910;2023-03-04T00:59:25;17.50;35.00
21171;DHT22;10743;52.160;20.910;2023-03-04T01:01:52;17.50;34.90
21171;DHT22;10743;52.160;20.910;2023-03-04T01:04:20;17.50;34.90
21171;DHT22;10743;52.160;20.910;2023-03-04T01:06:47;17.50;35.00
21171;DHT22;10743;52.160;20.910;2023-03-04T01:09:14;17.50;35.00
21171;DHT22;10743;52.160;20.910;2023-03-04T01:11:41;17.50;35.00
21171;DHT22;10743;52.160;20.910;2023-03-04T01:14:10;17.40;35.00
21171;DHT22;10743;52.160;20.910;2023-03-04T01:16:37;17.40;35.20
21171;DHT22;10743;52.160;20.910;2023-03-04T01:19:04;17.40;35.40
21171;DHT22;10743;52.160;20.910;2023-03-04T01:21:31;17.40;35.50
21171;DHT22;10743;52.160;20.910;2023-03-04T01:23:58;17.50;35.50
21171;DHT22;10743;52.160;20.910;2023-03-04T01:26:25;17.50;35.40
21171;DHT22;10743;52.160;20.910;2023-03-04T01:28:52;17.50;35.30
21171;DHT22;10743;52.160;20.910;2023-03-04T01:31:20;17.50;35.20
21171;DHT22;10743;52.160;20.910;2023-03-04T01:33:47;17.60;35.10
21171;DHT22;10743;52.160;20.910;2023-03-04T01:36:14;17.70;35.00
21171;DHT22;10743;52.160;20.910;2023-03-04T01:38:41;17.70;34.90
21171;DHT22;10743;52.160;20.910;2023-03-04T01:41:09;17.70;34.90
21171;DHT22;10743;52.160;20.910;2023-03-04T01:43:37;17.70;34.20
21171;DHT22;10743;52.160;20.910;2023-03-04T01:46:05;17.70;34.70
21171;DHT22;10743;52.160;20.910;2023-03-04T01:48:35;17.70;34.70
21171;DHT22;10743;52.160;20.910;2023-03-04T01:51:05;17.60;34.90
21171;DHT22;10743;52.160;20.910;2023-03-04T01:53:37;17.60;34.90
21171;DHT22;10743;52.160;20.910;2023-03-04T01:56:15;17.50;34.90
21171;DHT22;10743;52.160;20.910;2023-03-04T02:01:55;17.50;35.00
21171;DHT22;10743;52.160;20.910;2023-03-04T02:04:26;17.50;35.00
21171;DHT22;10743;52.160;20.910;2023-03-04T02:06:55;17.40;35.10
21171;DHT22;10743;52.160;20.910;2023-03-04T02:09:24;17.40;35.00
21171;DHT22;10743;52.160;20.910;2023-03-04T02:11:51;17.40;35.00
21171;DHT22;10743;52.160;20.910;2023-03-04T02:14:20;17.40;34.90
21171;DHT22;10743;52.160;20.910;2023-03-04T02:16:47;17.40;35.00
21171;DHT22;10743;52.160;20.910;2023-03-04T02:19:37;17.40;35.10
21171;DHT22;10743;52.160;20.910;2023-03-04T02:22:09;17.40;35.20
21171;DHT22;10743;52.160;20.910;2023-03-04T02:27:09;17.50;35.30
21171;DHT22;10743;52.160;20.910;2023-03-04T02:29:37;17.50;35.40
21171;DHT22;10743;52.160;20.910;2023-03-04T02:32:05;17.50;35.50
21171;DHT22;10743;52.160;20.910;2023-03-04T02:34:33;17.50;35.40
21171;DHT22;10743;52.160;20.910;2023-03-04T02:37:02;17.40;35.50
21171;DHT22;10743;52.160;20.910;2023-03-04T02:39:34;17.40;35.60
21171;DHT22;10743;52.160;20.910;2023-03-04T02:42:06;17.50;35.70
21171;DHT22;10743;52.160;20.910;2023-03-04T02:44:37;17.50;35.60
21171;DHT22;10743;52.160;20.910;2023-03-04T02:47:09;17.60;35.60
21171;DHT22;10743;52.160;20.910;2023-03-04T02:49:39;17.60;35.50
21171;DHT22;10743;52.160;20.910;2023-03-04T02:52:09;17.70;35.40
21171;DHT22;10743;52.160;20.910;2023-03-04T02:54:46;17.70;35.40
21171;DHT22;10743;52.160;20.910;2023-03-04T02:57:15;17.70;35.40
21171;DHT22;10743;52.160;20.910;2023-03-04T02:59:46;17.70;35.40
21171;DHT22;10743;52.160;20.910;2023-03-04T03:02:18;17.80;35.30
21171;DHT22;10743;52.160;20.910;2023-03-04T03:04:45;17.80;35.30
21171;DHT22;10743;52.160;20.910;2023-03-04T03:07:15;17.80;35.30
21171;DHT22;10743;52.160;20.910;2023-03-04T03:09:42;17.90;35.30
21171;DHT22;10743;52.160;20.910;2023-03-04T03:12:09;17.90;35.30
21171;DHT22;10743;52.160;20.910;2023-03-04T03:14:37;17.90;35.30
21171;DHT22;10743;52.160;20.910;2023-03-04T03:17:05;17.90;35.20
21171;DHT22;10743;52.160;20.910;2023-03-04T03:19:32;17.90;35.20
21171;DHT22;10743;52.160;20.910;2023-03-04T03:22:02;17.90;35.30
21171;DHT22;10743;52.160;20.910;2023-03-04T03:24:29;18.00;35.30
21171;DHT22;10743;52.160;20.910;2023-03-04T03:26:56;18.00;35.30
21171;DHT22;10743;52.160;20.910;2023-03-04T03:29:24;18.00;35.20
21171;DHT22;10743;52.160;20.910;2023-03-04T03:31:51;18.00;35.20
21171;DHT22;10743;52.160;20.910;2023-03-04T03:34:20;17.90;35.30
21171;DHT22;10743;52.160;20.910;2023-03-04T03:36:47;17.90;35.30
21171;DHT22;10743;52.160;20.910;2023-03-04T03:39:15;17.90;35.30
21171;DHT22;10743;52.160;20.910;2023-03-04T03:41:42;17.90;35.30
21171;DHT22;10743;52.160;20.910;2023-03-04T03:44:09;17.90;35.30
21171;DHT22;10743;52.160;20.910;2023-03-04T03:46:36;17.90;35.30
21171;DHT22;10743;52.160;20.910;2023-03-04T03:49:03;17.90;35.30
21171;DHT22;10743;52.160;20.910;2023-03-04T03:51:30;17.90;35.30
21171;DHT22;10743;52.160;20.910;2023-03-04T03:53:57;17.90;35.30
21171;DHT22;10743;52.160;20.910;2023-03-04T03:56:24;17.90;35.30
21171;DHT22;10743;52.160;20.910;2023-03-04T03:58:51;17.90;35.40
21171;DHT22;10743;52.160;20.910;2023-03-04T04:01:18;17.90;35.50
21171;DHT22;10743;52.160;20.910;2023-03-04T04:03:45;17.80;35.40
21171;DHT22;10743;52.160;20.910;2023-03-04T04:06:12;17.80;35.50
21171;DHT22;10743;52.160;20.910;2023-03-04T04:08:40;17.80;35.60
21171;DHT22;10743;52.160;20.910;2023-03-04T04:11:09;17.90;35.60
21171;DHT22;10743;52.160;20.910;2023-03-04T04:13:38;17.90;35.50
21171;DHT22;10743;52.160;20.910;2023-03-04T04:16:05;17.90;35.50
21171;DHT22;10743;52.160;20.910;2023-03-04T04:18:33;17.90;35.60
21171;DHT22;10743;52.160;20.910;2023-03-04T04:21:00;17.90;35.50
21171;DHT22;10743;52.160;20.910;2023-03-04T04:23:28;17.90;35.50
21171;DHT22;10743;52.160;20.910;2023-03-04T04:25:56;18.00;35.40
21171;DHT22;10743;52.160;20.910;2023-03-04T04:28:24;17.90;35.50
21171;DHT22;10743;52.160;20.910;2023-03-04T04:30:51;17.90;35.60
21171;DHT22;10743;52.160;20.910;2023-03-04T04:33:18;18.00;35.50
21171;DHT22;10743;52.160;20.910;2023-03-04T04:35:45;18.00;35.50
21171;DHT22;10743;52.160;20.910;2023-03-04T04:38:12;18.00;35.50
21171;DHT22;10743;52.160;20.910;2023-03-04T04:40:39;18.00;35.60
21171;DHT22;10743;52.160;20.910;2023-03-04T04:43:06;18.00;35.60
21171;DHT22;10743;52.160;20.910;2023-03-04T04:45:34;18.00;35.50
21171;DHT22;10743;52.160;20.910;2023-03-04T04:48:01;18.00;35.60
21171;DHT22;10743;52.160;20.910;2023-03-04T04:50:28;18.00;35.60
21171;DHT22;10743;52.160;20.910;2023-03-04T04:52:58;18.00;35.50
21171;DHT22;10743;52.160;20.910;2023-03-04T04:55:25;18.10;35.50
21171;DHT22;10743;52.160;20.910;2023-03-04T04:57:53;18.10;35.40
21171;DHT22;10743;52.160;20.910;2023-03-04T05:00:20;18.10;35.30
21171;DHT22;10743;52.160;20.910;2023-03-04T05:02:48;18.10;35.30
21171;DHT22;10743;52.160;20.910;2023-03-04T05:05:15;18.10;35.30
21171;DHT22;10743;52.160;20.910;2023-03-04T05:07:42;18.10;35.40
21171;DHT22;10743;52.160;20.910;2023-03-04T05:10:09;20.70;36.70
21171;DHT22;10743;52.160;20.910;2023-03-04T05:12:37;18.10;35.30
21171;DHT22;10743;52.160;20.910;2023-03-04T05:15:04;18.10;35.30
21171;DHT22;10743;52.160;20.910;2023-03-04T05:17:32;18.10;35.30
21171;DHT22;10743;52.160;20.910;2023-03-04T05:19:59;18.10;35.50
21171;DHT22;10743;52.160;20.910;2023-03-04T05:22:26;18.10;35.30
21171;DHT22;10743;52.160;20.910;2023-03-04T05:24:53;18.10;35.40
21171;DHT22;10743;52.160;20.910;2023-03-04T05:27:20;18.10;35.40
21171;DHT22;10743;52.160;20.910;2023-03-04T05:29:47;18.20;35.30
21171;DHT22;10743;52.160;20.910;2023-03-04T05:32:14;18.20;35.30
21171;DHT22;10743;52.160;20.910;2023-03-04T05:34:41;18.10;35.40
21171;DHT22;10743;52.160;20.910;2023-03-04T05:37:09;18.20;35.30
21171;DHT22;10743;52.160;20.910;2023-03-04T05:39:36;18.20;35.30
21171;DHT22;10743;52.160;20.910;2023-03-04T05:42:03;18.20;35.30
21171;DHT22;10743;52.160;20.910;2023-03-04T05:44:30;18.20;35.30
21171;DHT22;10743;52.160;20.910;2023-03-04T05:46:57;18.20;35.30
21171;DHT22;10743;52.160;20.910;2023-03-04T05:49:24;18.20;35.30
21171;DHT22;10743;52.160;20.910;2023-03-04T05:51:52;18.20;35.30
21171;DHT22;10743;52.160;20.910;2023-03-04T05:54:19;18.20;35.30
21171;DHT22;10743;52.160;20.910;2023-03-04T05:56:47;18.20;35.20
21171;DHT22;10743;52.160;20.910;2023-03-04T05:59:14;18.20;35.20
21171;DHT22;10743;52.160;20.910;2023-03-04T06:01:46;18.20;35.20
21171;DHT22;10743;52.160;20.910;2023-03-04T06:04:14;18.30;35.20
21171;DHT22;10743;52.160;20.910;2023-03-04T06:06:41;18.20;35.30
21171;DHT22;10743;52.160;20.910;2023-03-04T06:09:08;18.20;35.30
21171;DHT22;10743;52.160;20.910;2023-03-04T06:11:35;18.20;35.30
21171;DHT22;10743;52.160;20.910;2023-03-04T06:14:02;18.20;35.30
21171;DHT22;10743;52.160;20.910;2023-03-04T06:16:30;18.30;35.30
21171;DHT22;10743;52.160;20.910;2023-03-04T06:18:57;18.20;35.30
21171;DHT22;10743;52.160;20.910;2023-03-04T06:21:24;18.20;35.30
21171;DHT22;10743;52.160;20.910;2023-03-04T06:23:51;18.30;35.30
21171;DHT22;10743;52.160;20.910;2023-03-04T06:26:19;18.30;35.30
21171;DHT22;10743;52.160;20.910;2023-03-04T06:28:46;18.20;35.30
21171;DHT22;10743;52.160;20.910;2023-03-04T06:31:13;18.30;35.30
21171;DHT22;10743;52.160;20.910;2023-03-04T06:33:40;18.20;35.30
21171;DHT22;10743;52.160;20.910;2023-03-04T06:36:07;18.20;35.30
21171;DHT22;10743;52.160;20.910;2023-03-04T06:38:34;18.20;35.30
21171;DHT22;10743;52.160;20.910;2023-03-04T06:41:09;18.20;35.40
21171;DHT22;10743;52.160;20.910;2023-03-04T06:43:37;18.20;35.40
21171;DHT22;10743;52.160;20.910;2023-03-04T06:46:06;18.20;35.40
21171;DHT22;10743;52.160;20.910;2023-03-04T06:48:33;18.20;35.40
21171;DHT22;10743;52.160;20.910;2023-03-04T06:51:06;18.20;35.40
21171;DHT22;10743;52.160;20.910;2023-03-04T06:53:34;18.20;35.50
21171;DHT22;10743;52.160;20.910;2023-03-04T06:56:01;18.20;35.50
21171;DHT22;10743;52.160;20.910;2023-03-04T06:58:29;18.10;35.40
21171;DHT22;10743;52.160;20.910;2023-03-04T07:00:56;18.10;35.60
21171;DHT22;10743;52.160;20.910;2023-03-04T07:03:23;18.00;35.80
21171;DHT22;10743;52.160;20.910;2023-03-04T07:05:50;18.00;35.80
21171;DHT22;10743;52.160;20.910;2023-03-04T07:08:17;18.00;35.80
21171;DHT22;10743;52.160;20.910;2023-03-04T07:10:48;18.00;35.80
21171;DHT22;10743;52.160;20.910;2023-03-04T07:13:15;18.00;35.90
21171;DHT22;10743;52.160;20.910;2023-03-04T07:15:42;17.90;35.90
21171;DHT22;10743;52.160;20.910;2023-03-04T07:18:09;17.90;35.90
21171;DHT22;10743;52.160;20.910;2023-03-04T07:20:36;17.90;35.90
21171;DHT22;10743;52.160;20.910;2023-03-04T07:23:03;17.90;36.00
21171;DHT22;10743;52.160;20.910;2023-03-04T07:25:30;18.00;35.90
21171;DHT22;10743;52.160;20.910;2023-03-04T07:27:57;18.10;35.70
21171;DHT22;10743;52.160;20.910;2023-03-04T07:30:24;18.00;35.80
21171;DHT22;10743;52.160;20.910;2023-03-04T07:32:52;18.00;35.60
21171;DHT22;10743;52.160;20.910;2023-03-04T07:35:19;18.00;35.80
21171;DHT22;10743;52.160;20.910;2023-03-04T07:37:46;18.00;35.80
21171;DHT22;10743;52.160;20.910;2023-03-04T07:40:14;18.10;35.70
21171;DHT22;10743;52.160;20.910;2023-03-04T07:42:41;18.10;35.60
21171;DHT22;10743;52.160;20.910;2023-03-04T07:45:11;18.10;35.50
21171;DHT22;10743;52.160;20.910;2023-03-04T07:47:38;18.10;35.50
21171;DHT22;10743;52.160;20.910;2023-03-04T07:50:08;18.20;35.50
21171;DHT22;10743;52.160;20.910;2023-03-04T07:52:44;18.20;35.40
21171;DHT22;10743;52.160;20.910;2023-03-04T07:55:14;18.20;35.30
21171;DHT22;10743;52.160;20.910;2023-03-04T07:57:43;18.30;35.10
21171;DHT22;10743;52.160;20.910;2023-03-04T08:00:14;18.30;35.10
21171;DHT22;10743;52.160;20.910;2023-03-04T08:02:42;18.30;35.10
21171;DHT22;10743;52.160;20.910;2023-03-04T08:05:09;18.30;35.10
21171;DHT22;10743;52.160;20.910;2023-03-04T08:07:36;18.30;35.30
21171;DHT22;10743;52.160;20.910;2023-03-04T08:10:04;18.30;35.10
21171;DHT22;10743;52.160;20.910;2023-03-04T08:12:33;18.20;35.10
21171;DHT22;10743;52.160;20.910;2023-03-04T08:15:01;18.30;35.20
21171;DHT22;10743;52.160;20.910;2023-03-04T08:17:29;18.20;35.10
21171;DHT22;10743;52.160;20.910;2023-03-04T08:19:56;18.20;35.10
21171;DHT22;10743;52.160;20.910;2023-03-04T08:22:23;18.20;35.20
21171;DHT22;10743;52.160;20.910;2023-03-04T08:24:50;18.20;35.30
21171;DHT22;10743;52.160;20.910;2023-03-04T08:27:17;18.20;35.30
21171;DHT22;10743;52.160;20.910;2023-03-04T08:29:44;18.20;35.20
21171;DHT22;10743;52.160;20.910;2023-03-04T08:32:11;18.20;35.00
21171;DHT22;10743;52.160;20.910;2023-03-04T08:34:39;18.20;35.00
21171;DHT22;10743;52.160;20.910;2023-03-04T08:37:06;18.20;35.30
21171;DHT22;10743;52.160;20.910;2023-03-04T08:39:33;18.20;35.40
21171;DHT22;10743;52.160;20.910;2023-03-04T08:42:02;18.10;35.30
21171;DHT22;10743;52.160;20.910;2023-03-04T08:44:29;18.20;35.40
21171;DHT22;10743;52.160;20.910;2023-03-04T08:46:56;18.20;35.40
21171;DHT22;10743;52.160;20.910;2023-03-04T08:49:23;18.20;35.40
21171;DHT22;10743;52.160;20.910;2023-03-04T08:51:50;18.20;35.30
21171;DHT22;10743;52.160;20.910;2023-03-04T08:54:18;18.20;35.30
21171;DHT22;10743;52.160;20.910;2023-03-04T08:56:45;18.20;35.40
21171;DHT22;10743;52.160;20.910;2023-03-04T08:59:12;18.20;36.00
21171;DHT22;10743;52.160;20.910;2023-03-04T09:01:39;18.20;35.40
21171;DHT22;10743;52.160;20.910;2023-03-04T09:04:06;18.20;35.40
21171;DHT22;10743;52.160;20.910;2023-03-04T09:06:33;18.20;35.40
21171;DHT22;10743;52.160;20.910;2023-03-04T09:09:01;18.30;35.40
21171;DHT22;10743;52.160;20.910;2023-03-04T09:11:29;18.20;35.50
21171;DHT22;10743;52.160;20.910;2023-03-04T09:13:56;18.20;35.70
21171;DHT22;10743;52.160;20.910;2023-03-04T09:16:23;18.20;35.60
21171;DHT22;10743;52.160;20.910;2023-03-04T09:18:50;18.20;35.50
21171;DHT22;10743;52.160;20.910;2023-03-04T09:21:17;18.30;35.50
21171;DHT22;10743;52.160;20.910;2023-03-04T09:23:44;18.30;35.40
21171;DHT22;10743;52.160;20.910;2023-03-04T09:26:21;18.30;35.50
21171;DHT22;10743;52.160;20.910;2023-03-04T09:28:52;18.30;35.50
21171;DHT22;10743;52.160;20.910;2023-03-04T09:31:20;18.30;35.50
21171;DHT22;10743;52.160;20.910;2023-03-04T09:33:48;18.30;35.60
21171;DHT22;10743;52.160;20.910;2023-03-04T09:36:16;18.30;35.50
21171;DHT22;10743;52.160;20.910;2023-03-04T09:38:43;18.40;35.50
21171;DHT22;10743;52.160;20.910;2023-03-04T09:41:35;18.50;35.50
21171;DHT22;10743;52.160;20.910;2023-03-04T09:44:28;18.50;35.50
21171;DHT22;10743;52.160;20.910;2023-03-04T09:47:02;18.50;35.50
21171;DHT22;10743;52.160;20.910;2023-03-04T09:49:32;18.50;35.30
21171;DHT22;10743;52.160;20.910;2023-03-04T09:52:11;18.60;35.40
21171;DHT22;10743;52.160;20.910;2023-03-04T09:54:57;18.60;35.50
21171;DHT22;10743;52.160;20.910;2023-03-04T10:00:23;18.60;35.40
21171;DHT22;10743;52.160;20.910;2023-03-04T10:03:17;18.70;35.30
21171;DHT22;10743;52.160;20.910;2023-03-04T10:05:56;18.70;35.20
21171;DHT22;10743;52.160;20.910;2023-03-04T10:16:59;18.80;35.20
21171;DHT22;10743;52.160;20.910;2023-03-04T10:22:34;18.90;35.00
21171;DHT22;10743;52.160;20.910;2023-03-04T10:28:00;18.90;34.90
21171;DHT22;10743;52.160;20.910;2023-03-04T10:33:18;18.90;35.10
21171;DHT22;10743;52.160;20.910;2023-03-04T10:35:52;18.90;35.00
21171;DHT22;10743;52.160;20.910;2023-03-04T10:38:33;18.90;35.10
21171;DHT22;10743;52.160;20.910;2023-03-04T10:41:14;19.00;35.10
21171;DHT22;10743;52.160;20.910;2023-03-04T10:46:39;19.10;35.00
21171;DHT22;10743;52.160;20.910;2023-03-04T10:49:13;19.10;35.00
21171;DHT22;10743;52.160;20.910;2023-03-04T10:52:17;19.10;35.00
21171;DHT22;10743;52.160;20.910;2023-03-04T10:54:51;19.10;35.30
21171;DHT22;10743;52.160;20.910;2023-03-04T10:57:35;19.10;35.40
21171;DHT22;10743;52.160;20.910;2023-03-04T11:00:27;19.10;35.50
21171;DHT22;10743;52.160;20.910;2023-03-04T11:03:37;19.10;35.50
21171;DHT22;10743;52.160;20.910;2023-03-04T11:06:09;19.10;35.60
21171;DHT22;10743;52.160;20.910;2023-03-04T11:08:40;19.20;35.90
21171;DHT22;10743;52.160;20.910;2023-03-04T11:14:21;19.20;36.00
21171;DHT22;10743;52.160;20.910;2023-03-04T11:19:47;19.30;36.20
21171;DHT22;10743;52.160;20.910;2023-03-04T11:22:23;19.30;35.90
21171;DHT22;10743;52.160;20.910;2023-03-04T11:25:24;19.30;35.90
21171;DHT22;10743;52.160;20.910;2023-03-04T11:27:57;19.20;35.90
21171;DHT22;10743;52.160;20.910;2023-03-04T11:30:40;19.30;36.20
21171;DHT22;10743;52.160;20.910;2023-03-04T11:36:07;19.20;36.30
21171;DHT22;10743;52.160;20.910;2023-03-04T11:38:42;19.20;36.30
21171;DHT22;10743;52.160;20.910;2023-03-04T11:41:19;19.30;36.10
21171;DHT22;10743;52.160;20.910;2023-03-04T11:43:51;19.30;36.30
21171;DHT22;10743;52.160;20.910;2023-03-04T11:47:08;19.40;36.20
21171;DHT22;10743;52.160;20.910;2023-03-04T11:53:28;19.40;36.10
21171;DHT22;10743;52.160;20.910;2023-03-04T11:56:30;19.40;36.10
21171;DHT22;10743;52.160;20.910;2023-03-04T12:05:50;19.40;36.70
21171;DHT22;10743;52.160;20.910;2023-03-04T12:26:16;19.50;37.20
21171;DHT22;10743;52.160;20.910;2023-03-04T12:45:56;19.30;37.70
21171;DHT22;10743;52.160;20.910;2023-03-04T12:48:34;19.40;37.50
21171;DHT22;10743;52.160;20.910;2023-03-04T12:54:11;19.40;37.90
21171;DHT22;10743;52.160;20.910;2023-03-04T12:56:50;19.50;38.00
21171;DHT22;10743;52.160;20.910;2023-03-04T12:59:19;19.50;38.10
21171;DHT22;10743;52.160;20.910;2023-03-04T13:02:23;19.50;38.00
21171;DHT22;10743;52.160;20.910;2023-03-04T13:14:07;19.60;38.10
21171;DHT22;10743;52.160;20.910;2023-03-04T13:16:51;19.60;38.20
21171;DHT22;10743;52.160;20.910;2023-03-04T13:28:37;19.70;38.20
21171;DHT22;10743;52.160;20.910;2023-03-04T13:36:06;19.60;38.00
21171;DHT22;10743;52.160;20.910;2023-03-04T13:42:04;19.60;37.80
21171;DHT22;10743;52.160;20.910;2023-03-04T13:47:16;19.50;39.90
21171;DHT22;10743;52.160;20.910;2023-03-04T13:49:44;19.50;39.60
21171;DHT22;10743;52.160;20.910;2023-03-04T13:52:38;19.60;37.80
21171;DHT22;10743;52.160;20.910;2023-03-04T13:55:32;19.60;37.60
21171;DHT22;10743;52.160;20.910;2023-03-04T13:58:25;19.70;37.50
21171;DHT22;10743;52.160;20.910;2023-03-04T14:00:53;19.70;37.40
21171;DHT22;10743;52.160;20.910;2023-03-04T14:03:24;19.60;37.50
21171;DHT22;10743;52.160;20.910;2023-03-04T14:08:54;19.60;39.40
21171;DHT22;10743;52.160;20.910;2023-03-04T14:11:48;19.70;38.50
21171;DHT22;10743;52.160;20.910;2023-03-04T14:14:22;19.60;38.70
21171;DHT22;10743;52.160;20.910;2023-03-04T14:16:56;19.60;38.20
21171;DHT22;10743;52.160;20.910;2023-03-04T14:19:32;20.20;38.20
21171;DHT22;10743;52.160;20.910;2023-03-04T14:27:30;19.30;37.60
21171;DHT22;10743;52.160;20.910;2023-03-04T14:30:01;19.50;37.50
21171;DHT22;10743;52.160;20.910;2023-03-04T14:32:30;19.40;37.40
21171;DHT22;10743;52.160;20.910;2023-03-04T14:35:02;19.40;37.60
21171;DHT22;10743;52.160;20.910;2023-03-04T14:37:42;19.40;35.90
21171;DHT22;10743;52.160;20.910;2023-03-04T14:40:25;19.40;35.80
21171;DHT22;10743;52.160;20.910;2023-03-04T14:43:20;19.40;37.10
21171;DHT22;10743;52.160;20.910;2023-03-04T14:45:51;19.30;35.50
21171;DHT22;10743;52.160;20.910;2023-03-04T14:48:24;19.30;35.50
21171;DHT22;10743;52.160;20.910;2023-03-04T14:51:02;19.30;35.40
21171;DHT22;10743;52.160;20.910;2023-03-04T14:53:31;19.30;35.10
21171;DHT22;10743;52.160;20.910;2023-03-04T14:56:02;19.20;35.00
21171;DHT22;10743;52.160;20.910;2023-03-04T14:58:36;19.30;36.70
21171;DHT22;10743;52.160;20.910;2023-03-04T15:01:17;19.30;36.20
21171;DHT22;10743;52.160;20.910;2023-03-04T15:03:56;19.20;34.50
21171;DHT22;10743;52.160;20.910;2023-03-04T15:06:32;19.20;34.40
21171;DHT22;10743;52.160;20.910;2023-03-04T15:09:06;19.20;34.60
21171;DHT22;10743;52.160;20.910;2023-03-04T15:11:48;19.20;34.30
21171;DHT22;10743;52.160;20.910;2023-03-04T15:14:46;19.20;33.60
21171;DHT22;10743;52.160;20.910;2023-03-04T15:17:35;19.20;33.70
21171;DHT22;10743;52.160;20.910;2023-03-04T15:22:36;19.30;33.10
21171;DHT22;10743;52.160;20.910;2023-03-04T15:25:22;19.30;32.30
21171;DHT22;10743;52.160;20.910;2023-03-04T15:27:50;19.30;32.40
21171;DHT22;10743;52.160;20.910;2023-03-04T15:32:58;19.30;31.60
21171;DHT22;10743;52.160;20.910;2023-03-04T15:35:29;19.30;31.70
21171;DHT22;10743;52.160;20.910;2023-03-04T15:37:59;19.30;30.50
21171;DHT22;10743;52.160;20.910;2023-03-04T15:40:33;19.30;31.00
21171;DHT22;10743;52.160;20.910;2023-03-04T15:43:05;19.20;31.00
21171;DHT22;10743;52.160;20.910;2023-03-04T15:45:35;19.20;31.40
21171;DHT22;10743;52.160;20.910;2023-03-04T15:48:10;19.20;30.00
21171;DHT22;10743;52.160;20.910;2023-03-04T15:50:51;19.20;29.60
21171;DHT22;10743;52.160;20.910;2023-03-04T15:53:38;19.20;28.80
21171;DHT22;10743;52.160;20.910;2023-03-04T15:56:12;19.20;28.30
21171;DHT22;10743;52.160;20.910;2023-03-04T15:58:41;19.20;28.10
21171;DHT22;10743;52.160;20.910;2023-03-04T16:01:18;19.20;27.10
21171;DHT22;10743;52.160;20.910;2023-03-04T16:03:45;19.20;26.80
21171;DHT22;10743;52.160;20.910;2023-03-04T16:06:14;19.10;27.60
21171;DHT22;10743;52.160;20.910;2023-03-04T16:08:44;19.10;27.20
21171;DHT22;10743;52.160;20.910;2023-03-04T16:11:19;19.00;27.40
21171;DHT22;10743;52.160;20.910;2023-03-04T16:13:48;19.00;26.10
21171;DHT22;10743;52.160;20.910;2023-03-04T16:16:16;19.00;26.80
21171;DHT22;10743;52.160;20.910;2023-03-04T16:18:43;18.90;26.50
21171;DHT22;10743;52.160;20.910;2023-03-04T16:21:16;18.90;26.60
21171;DHT22;10743;52.160;20.910;2023-03-04T16:23:46;18.80;26.90
21171;DHT22;10743;52.160;20.910;2023-03-04T16:26:16;18.80;26.90
21171;DHT22;10743;52.160;20.910;2023-03-04T16:28:45;18.80;26.50
21171;DHT22;10743;52.160;20.910;2023-03-04T16:31:13;18.70;26.70
21171;DHT22;10743;52.160;20.910;2023-03-04T16:33:42;18.70;26.90
21171;DHT22;10743;52.160;20.910;2023-03-04T16:36:23;18.70;26.30
21171;DHT22;10743;52.160;20.910;2023-03-04T16:38:55;18.60;26.20
21171;DHT22;10743;52.160;20.910;2023-03-04T16:41:27;18.60;26.10
21171;DHT22;10743;52.160;20.910;2023-03-04T16:43:59;18.50;26.40
21171;DHT22;10743;52.160;20.910;2023-03-04T16:46:27;18.40;25.90
21171;DHT22;10743;52.160;20.910;2023-03-04T16:48:55;18.40;25.40
21171;DHT22;10743;52.160;20.910;2023-03-04T16:51:23;18.30;25.50
21171;DHT22;10743;52.160;20.910;2023-03-04T16:53:57;18.30;26.00
21171;DHT22;10743;52.160;20.910;2023-03-04T16:56:27;18.20;26.30
21171;DHT22;10743;52.160;20.910;2023-03-04T16:58:55;18.10;26.00
21171;DHT22;10743;52.160;20.910;2023-03-04T17:01:23;18.10;26.00
21171;DHT22;10743;52.160;20.910;2023-03-04T17:03:52;18.10;25.30
21171;DHT22;10743;52.160;20.910;2023-03-04T17:06:20;18.00;26.30
21171;DHT22;10743;52.160;20.910;2023-03-04T17:08:48;17.90;26.20
21171;DHT22;10743;52.160;20.910;2023-03-04T17:11:17;17.90;26.00
21171;DHT22;10743;52.160;20.910;2023-03-04T17:13:46;17.90;26.20
21171;DHT22;10743;52.160;20.910;2023-03-04T17:16:14;17.80;26.30
21171;DHT22;10743;52.160;20.910;2023-03-04T17:18:42;17.80;26.80
21171;DHT22;10743;52.160;20.910;2023-03-04T17:21:13;17.80;26.30
21171;DHT22;10743;52.160;20.910;2023-03-04T17:23:42;17.80;25.50
21171;DHT22;10743;52.160;20.910;2023-03-04T17:26:09;17.80;26.00
21171;DHT22;10743;52.160;20.910;2023-03-04T17:28:37;17.80;25.80
21171;DHT22;10743;52.160;20.910;2023-03-04T17:31:11;17.70;26.20
21171;DHT22;10743;52.160;20.910;2023-03-04T17:33:39;17.70;26.40
21171;DHT22;10743;52.160;20.910;2023-03-04T17:36:07;17.60;26.30
21171;DHT22;10743;52.160;20.910;2023-03-04T17:38:37;17.70;25.90
21171;DHT22;10743;52.160;20.910;2023-03-04T17:41:07;17.60;26.40
21171;DHT22;10743;52.160;20.910;2023-03-04T17:43:36;17.60;25.90
21171;DHT22;10743;52.160;20.910;2023-03-04T17:46:06;17.60;25.40